DIYO

Yamoussoukro Airport

Yamoussoukro, Côte D’Ivoire
TAF DIYO 170500Z 1706/1806 22004KT 9999 SCT013 TEMPO 1706/1708 2000 BR BKN011 TEMPO 1716/1722 BKN013 FEW025CB
Issued Valid From Valid To
Nov-17 @ 05:00 UTC
(4 hours ago)
Nov-17 @ 06:00 UTC
(3 hours ago)
Nov-18 @ 06:00 UTC
(in 21 hours)
Nov-17 @ 06:00 to Nov-18 @ 06:00
TAF DIYO 170500Z 1706/1806 22004KT 9999 SCT013
Wind Visibility Clouds
220° at 4 knots 10,000+ meters
  • Scattered at 1,300' AGL
Expired Click to View Nov-17 @ 06:00 to Nov-17 @ 08:00
TEMPO 1706/1708 2000 BR BKN011
Visibility Clouds Conditions
1,996 meters
  • Broken at 1,100' AGL
  • Mist
Temporary Nov-17 @ 16:00 to Nov-17 @ 22:00
TEMPO 1716/1722 BKN013 FEW025CB
Clouds
  • Broken at 1,300' AGL
  • Few at 2,500' AGL
TAF DIYO 170500Z 1706/1806 22004KT 9999 SCT013 TEMPO 1706/1708 2000 BR BKN011 TEMPO 1716/1722 BKN013 FEW025CB
Issued Nov-17 @ 05:00 UTC
(4 hours ago)
Valid From Nov-17 @ 06:00 UTC
(3 hours ago)
Valid To Nov-18 @ 06:00 UTC
(in 21 hours)
Nov-17 @ 06:00 - Nov-18 @ 06:00
Wind Visibility
220° at 4 knots 10,000+ meters
Clouds
  • Scattered at 1,300' AGL
Nov-17 @ 06:00 - Nov-17 @ 08:00
Clouds
  • Broken at 1,100' AGL
Conditions
  • Mist
Temporary Nov-17 @ 16:00 - Nov-17 @ 22:00
Clouds
  • Broken at 1,300' AGL
  • Few at 2,500' AGL